createdAt,value
2023-03-22T00:00:39.988Z,0.00
2023-03-22T00:01:39.675Z,0.00
2023-03-22T00:02:39.694Z,0.00
2023-03-22T00:03:39.659Z,0.00
2023-03-22T00:04:39.661Z,0.00
2023-03-22T00:05:39.602Z,0.00
2023-03-22T00:06:39.622Z,0.00
2023-03-22T00:07:39.592Z,0.00
2023-03-22T00:08:39.570Z,0.00
2023-03-22T00:09:39.612Z,0.00
2023-03-22T00:10:39.918Z,0.00
2023-03-22T00:11:39.547Z,0.00
2023-03-22T00:12:39.538Z,0.00
2023-03-22T00:13:39.529Z,0.00
2023-03-22T00:14:39.529Z,0.00
2023-03-22T00:15:39.589Z,0.00
2023-03-22T00:16:39.522Z,0.00
2023-03-22T00:17:39.483Z,0.00
2023-03-22T00:18:39.475Z,0.00
2023-03-22T00:19:39.488Z,0.00
2023-03-22T00:20:39.741Z,0.00
2023-03-22T00:21:39.450Z,0.00
2023-03-22T00:22:39.448Z,0.00
2023-03-22T00:23:39.431Z,0.00
2023-03-22T00:24:39.445Z,0.00
2023-03-22T00:25:39.407Z,0.00
2023-03-22T00:26:39.418Z,0.00
2023-03-22T00:27:39.407Z,0.00
2023-03-22T00:28:39.391Z,0.00
2023-03-22T00:29:39.421Z,0.00
2023-03-22T00:30:39.693Z,0.00
2023-03-22T00:31:39.419Z,0.00
2023-03-22T00:32:39.377Z,0.00
2023-03-22T00:33:39.352Z,0.00
2023-03-22T00:34:39.351Z,0.00
2023-03-22T00:35:39.372Z,0.00
2023-03-22T00:36:39.305Z,0.00
2023-03-22T00:37:39.311Z,0.00
2023-03-22T00:38:45.549Z,0.00
2023-03-22T00:39:41.310Z,0.00
2023-03-22T00:40:40.441Z,0.00
2023-03-22T00:41:39.262Z,0.00
2023-03-22T00:42:39.249Z,0.00
2023-03-22T00:43:39.245Z,0.00
2023-03-22T00:44:39.266Z,0.00
2023-03-22T00:45:39.219Z,0.00
2023-03-22T00:46:39.222Z,0.00
2023-03-22T00:47:39.202Z,0.00
2023-03-22T00:48:39.183Z,0.00
2023-03-22T00:49:39.202Z,0.00
2023-03-22T00:50:39.395Z,0.00
2023-03-22T00:51:39.147Z,0.00
2023-03-22T00:52:39.145Z,0.00
2023-03-22T00:53:42.424Z,0.00
2023-03-22T00:54:39.129Z,0.00
2023-03-22T00:55:39.138Z,0.00
2023-03-22T00:56:39.120Z,0.00
2023-03-22T00:57:39.128Z,0.00
2023-03-22T00:58:39.101Z,0.00
2023-03-22T00:59:39.082Z,0.00
2023-03-22T01:00:39.441Z,0.00
2023-03-22T01:01:39.063Z,0.00
2023-03-22T01:02:39.051Z,0.00
2023-03-22T01:03:39.068Z,0.00
2023-03-22T01:04:39.053Z,0.00
2023-03-22T01:05:39.061Z,0.00
2023-03-22T01:06:39.007Z,0.00
2023-03-22T01:07:39.007Z,0.00
2023-03-22T01:08:39.412Z,0.00
2023-03-22T01:09:38.985Z,0.00
2023-03-22T01:10:39.201Z,0.00
2023-03-22T01:11:38.948Z,0.00
2023-03-22T01:12:38.944Z,0.00
2023-03-22T01:13:38.940Z,0.00
2023-03-22T01:14:38.929Z,0.00
2023-03-22T01:15:38.960Z,0.00
2023-03-22T01:16:38.961Z,0.00
2023-03-22T01:17:38.901Z,0.00
2023-03-22T01:18:38.892Z,0.00
2023-03-22T01:19:38.882Z,0.00
2023-03-22T01:20:39.293Z,0.00
2023-03-22T01:21:38.871Z,0.00
2023-03-22T01:22:38.853Z,0.00
2023-03-22T01:23:38.849Z,0.00
2023-03-22T01:24:38.843Z,0.00
2023-03-22T01:25:38.844Z,0.00
2023-03-22T01:26:38.809Z,0.00
2023-03-22T01:27:38.806Z,0.00
2023-03-22T01:28:38.785Z,0.00
2023-03-22T01:29:38.786Z,0.00
2023-03-22T01:30:39.078Z,0.00
2023-03-22T01:31:38.768Z,0.00
2023-03-22T01:32:38.763Z,0.00
2023-03-22T01:33:38.778Z,0.00
2023-03-22T01:34:38.729Z,0.00
2023-03-22T01:35:38.769Z,0.00
2023-03-22T01:36:38.712Z,0.00
2023-03-22T01:37:38.706Z,0.00
2023-03-22T01:38:38.715Z,0.00
2023-03-22T01:39:38.724Z,0.00
2023-03-22T01:40:39.023Z,0.00
2023-03-22T01:41:38.672Z,0.00
2023-03-22T01:42:38.674Z,0.00
2023-03-22T01:43:38.658Z,0.00
2023-03-22T01:44:38.639Z,0.00
2023-03-22T01:45:38.680Z,0.00
2023-03-22T01:46:38.716Z,0.00
2023-03-22T01:47:38.610Z,0.00
2023-03-22T01:48:38.721Z,0.00
2023-03-22T01:49:38.593Z,0.00
2023-03-22T01:50:38.882Z,0.00
2023-03-22T01:51:38.574Z,0.00
2023-03-22T01:52:38.557Z,0.00
2023-03-22T01:53:38.556Z,0.00
2023-03-22T01:54:38.550Z,0.00
2023-03-22T01:55:38.560Z,0.00
2023-03-22T01:56:38.525Z,0.00
2023-03-22T01:57:38.517Z,0.00
2023-03-22T01:58:38.503Z,0.00
2023-03-22T01:59:38.500Z,0.00
2023-03-22T02:00:38.825Z,0.00
2023-03-22T02:01:38.497Z,0.00
2023-03-22T02:02:39.530Z,0.00
2023-03-22T02:03:38.452Z,0.00
2023-03-22T02:04:38.493Z,0.00
2023-03-22T02:05:38.469Z,0.00
2023-03-22T02:06:38.466Z,0.00
2023-03-22T02:07:38.420Z,0.00
2023-03-22T02:08:38.406Z,0.00
2023-03-22T02:09:38.397Z,0.00
2023-03-22T02:10:38.575Z,0.00
2023-03-22T02:11:38.374Z,0.00
2023-03-22T02:12:38.365Z,0.00
2023-03-22T02:13:38.364Z,0.00
2023-03-22T02:14:38.353Z,0.00
2023-03-22T02:15:39.428Z,0.00
2023-03-22T02:16:38.392Z,0.00
2023-03-22T02:17:38.326Z,0.00
2023-03-22T02:18:38.312Z,0.00
2023-03-22T02:19:38.303Z,0.00
2023-03-22T02:20:38.699Z,0.00
2023-03-22T02:21:38.275Z,0.00
2023-03-22T02:22:38.277Z,0.00
2023-03-22T02:23:38.260Z,0.00
2023-03-22T02:24:38.278Z,0.00
2023-03-22T02:25:38.295Z,0.00
2023-03-22T02:26:38.234Z,0.00
2023-03-22T02:27:38.242Z,0.00
2023-03-22T02:28:38.234Z,0.00
2023-03-22T02:29:38.207Z,0.00
2023-03-22T02:30:38.554Z,0.00
2023-03-22T02:31:38.255Z,0.00
2023-03-22T02:32:38.190Z,0.00
2023-03-22T02:33:40.449Z,0.00
2023-03-22T02:34:38.148Z,0.00
2023-03-22T02:35:38.184Z,0.00
2023-03-22T02:36:38.131Z,0.00
2023-03-22T02:37:38.138Z,0.00
2023-03-22T02:38:38.113Z,0.00
2023-03-22T02:39:38.105Z,0.00
2023-03-22T02:40:38.512Z,0.00
2023-03-22T02:41:38.094Z,0.00
2023-03-22T02:42:38.084Z,0.00
2023-03-22T02:43:38.078Z,0.00
2023-03-22T02:44:38.050Z,0.00
2023-03-22T02:45:38.071Z,0.00
2023-03-22T02:46:38.088Z,0.00
2023-03-22T02:47:38.027Z,0.00
2023-03-22T02:48:38.009Z,0.00
2023-03-22T02:49:38.013Z,0.00
2023-03-22T02:50:38.435Z,0.00
2023-03-22T02:51:38.010Z,0.00
2023-03-22T02:52:37.972Z,0.00
2023-03-22T02:53:37.958Z,0.00
2023-03-22T02:54:37.948Z,0.00
2023-03-22T02:55:37.949Z,0.00
2023-03-22T02:56:37.953Z,0.00
2023-03-22T02:57:37.930Z,0.00
2023-03-22T02:58:37.915Z,0.00
2023-03-22T02:59:37.905Z,0.00
2023-03-22T03:00:38.408Z,0.00
2023-03-22T03:01:37.987Z,0.00
2023-03-22T03:02:37.872Z,0.00
2023-03-22T03:03:37.870Z,0.00
2023-03-22T03:04:37.860Z,0.00
2023-03-22T03:05:37.848Z,0.00
2023-03-22T03:06:37.853Z,0.00
2023-03-22T03:07:37.830Z,0.00
2023-03-22T03:08:37.813Z,0.00
2023-03-22T03:09:37.807Z,0.00
2023-03-22T03:10:38.191Z,0.00
2023-03-22T03:11:37.811Z,0.00
2023-03-22T03:12:37.781Z,0.00
2023-03-22T03:13:37.809Z,0.00
2023-03-22T03:14:37.759Z,0.00
2023-03-22T03:15:37.754Z,0.00
2023-03-22T03:16:37.822Z,0.00
2023-03-22T03:17:37.729Z,0.00
2023-03-22T03:18:37.721Z,0.00
2023-03-22T03:19:37.710Z,0.00
2023-03-22T03:20:38.304Z,0.00
2023-03-22T03:21:37.690Z,0.00
2023-03-22T03:22:37.680Z,0.00
2023-03-22T03:23:37.670Z,0.00
2023-03-22T03:24:37.670Z,0.00
2023-03-22T03:25:37.702Z,0.00
2023-03-22T03:26:37.649Z,0.00
2023-03-22T03:27:37.638Z,0.00
2023-03-22T03:28:37.656Z,0.00
2023-03-22T03:29:37.619Z,0.00
2023-03-22T03:30:37.949Z,0.00
2023-03-22T03:31:37.659Z,0.00
2023-03-22T03:32:37.584Z,0.00
2023-03-22T03:33:37.587Z,0.00
2023-03-22T03:34:37.562Z,0.00
2023-03-22T03:35:37.636Z,0.00
2023-03-22T03:36:37.541Z,0.00
2023-03-22T03:37:37.546Z,0.00
2023-03-22T03:38:37.517Z,0.00
2023-03-22T03:39:37.514Z,0.00
2023-03-22T03:40:37.988Z,0.00
2023-03-22T03:41:37.495Z,0.00
2023-03-22T03:42:37.497Z,0.00
2023-03-22T03:43:37.497Z,0.00
2023-03-22T03:44:37.493Z,0.00
2023-03-22T03:45:37.535Z,0.00
2023-03-22T03:46:37.437Z,0.00
2023-03-22T03:47:37.432Z,0.00
2023-03-22T03:48:37.422Z,0.00
2023-03-22T03:49:37.416Z,0.00
2023-03-22T03:50:37.691Z,0.00
2023-03-22T03:51:37.396Z,0.00
2023-03-22T03:52:37.378Z,0.00
2023-03-22T03:53:37.370Z,0.00
2023-03-22T03:54:37.368Z,0.00
2023-03-22T03:55:37.371Z,0.00
2023-03-22T03:56:37.350Z,0.00
2023-03-22T03:57:37.335Z,0.00
2023-03-22T03:58:37.343Z,0.00
2023-03-22T03:59:37.332Z,0.00
2023-03-22T04:00:37.464Z,0.00
2023-03-22T04:01:37.301Z,0.00
2023-03-22T04:02:37.376Z,0.00
2023-03-22T04:03:37.296Z,0.00
2023-03-22T04:05:09.172Z,0.00
2023-03-22T04:05:37.263Z,0.00
2023-03-22T04:06:37.245Z,0.00
2023-03-22T04:07:37.266Z,0.00
2023-03-22T04:08:37.228Z,0.00
2023-03-22T04:09:37.247Z,0.00
2023-03-22T04:10:37.455Z,0.00
2023-03-22T04:11:37.201Z,0.00
2023-03-22T04:12:37.212Z,0.00
2023-03-22T04:13:37.179Z,0.00
2023-03-22T04:14:37.169Z,0.00
2023-03-22T04:15:37.157Z,0.00
2023-03-22T04:16:37.206Z,0.00
2023-03-22T04:17:37.167Z,0.00
2023-03-22T04:18:37.139Z,0.00
2023-03-22T04:19:37.123Z,0.00
2023-03-22T04:20:37.453Z,0.00
2023-03-22T04:21:37.098Z,0.00
2023-03-22T04:22:37.085Z,0.00
2023-03-22T04:23:37.084Z,0.00
2023-03-22T04:24:37.075Z,0.00
2023-03-22T04:25:37.085Z,0.00
2023-03-22T04:26:37.090Z,0.00
2023-03-22T04:27:37.037Z,0.00
2023-03-22T04:28:37.035Z,0.00
2023-03-22T04:29:37.009Z,0.00
2023-03-22T04:30:37.147Z,0.00
2023-03-22T04:31:36.992Z,0.00
2023-03-22T04:32:36.983Z,0.00
2023-03-22T04:33:36.974Z,0.00
2023-03-22T04:34:36.960Z,0.00
2023-03-22T04:35:36.988Z,0.00
2023-03-22T04:36:36.955Z,0.00
2023-03-22T04:37:36.947Z,0.00
2023-03-22T04:38:36.931Z,0.00
2023-03-22T04:39:36.907Z,0.00
2023-03-22T04:40:38.527Z,0.00
2023-03-22T04:41:36.921Z,0.00
2023-03-22T04:42:36.882Z,0.00
2023-03-22T04:43:36.882Z,0.00
2023-03-22T04:44:36.870Z,0.00
2023-03-22T04:45:36.841Z,0.00
2023-03-22T04:46:37.892Z,0.00
2023-03-22T04:47:36.827Z,0.00
2023-03-22T04:48:36.834Z,0.00
2023-03-22T04:49:36.816Z,0.00
2023-03-22T04:50:36.943Z,0.00
2023-03-22T04:51:36.835Z,0.00
2023-03-22T04:52:36.784Z,0.00
2023-03-22T04:53:36.772Z,0.00
2023-03-22T04:54:36.757Z,0.00
2023-03-22T04:55:36.755Z,0.00
2023-03-22T04:56:36.789Z,0.00
2023-03-22T04:57:37.715Z,0.00
2023-03-22T04:58:36.745Z,0.00
2023-03-22T04:59:36.726Z,0.00
2023-03-22T05:00:36.721Z,0.00
2023-03-22T05:01:36.719Z,0.00
2023-03-22T05:02:36.745Z,0.00
2023-03-22T05:03:36.703Z,0.00
2023-03-22T05:04:36.658Z,0.00
2023-03-22T05:05:36.651Z,0.00
2023-03-22T05:06:36.648Z,0.00
2023-03-22T05:07:36.631Z,0.00
2023-03-22T05:08:36.676Z,0.00
2023-03-22T05:09:36.612Z,0.00
2023-03-22T05:10:36.594Z,0.00
2023-03-22T05:11:36.636Z,0.00
2023-03-22T05:12:36.602Z,0.00
2023-03-22T05:13:36.580Z,0.00
2023-03-22T05:14:36.649Z,0.00
2023-03-22T05:15:36.550Z,0.00
2023-03-22T05:16:37.557Z,0.00
2023-03-22T05:17:36.538Z,0.00
2023-03-22T05:18:36.519Z,0.00
2023-03-22T05:19:36.518Z,0.00
2023-03-22T05:20:36.514Z,0.00
2023-03-22T05:21:36.625Z,5.62
2023-03-22T05:22:36.480Z,5.62
2023-03-22T05:23:36.496Z,5.62
2023-03-22T05:24:36.455Z,5.62
2023-03-22T05:25:36.458Z,5.62
2023-03-22T05:26:36.482Z,5.62
2023-03-22T05:27:36.429Z,5.62
2023-03-22T05:28:36.416Z,5.62
2023-03-22T05:29:36.408Z,11.25
2023-03-22T05:30:36.431Z,11.25
2023-03-22T05:31:36.436Z,11.25
2023-03-22T05:32:36.382Z,16.88
2023-03-22T05:33:36.366Z,16.88
2023-03-22T05:34:36.350Z,16.88
2023-03-22T05:35:36.406Z,16.88
2023-03-22T05:36:36.403Z,16.88
2023-03-22T05:37:36.330Z,22.50
2023-03-22T05:38:36.333Z,22.50
2023-03-22T05:39:36.311Z,22.50
2023-03-22T05:40:36.307Z,28.12
2023-03-22T05:41:36.969Z,28.12
2023-03-22T05:42:37.279Z,28.12
2023-03-22T05:43:36.276Z,28.12
2023-03-22T05:44:36.261Z,33.75
2023-03-22T05:45:36.246Z,39.38
2023-03-22T05:46:36.293Z,45.00
2023-03-22T05:47:36.225Z,45.00
2023-03-22T05:48:36.215Z,50.62
2023-03-22T05:49:36.210Z,50.62
2023-03-22T05:50:36.219Z,56.25
2023-03-22T05:51:36.231Z,56.25
2023-03-22T05:52:36.181Z,56.25
2023-03-22T05:53:36.162Z,56.25
2023-03-22T05:54:36.151Z,61.88
2023-03-22T05:55:36.149Z,61.88
2023-03-22T05:56:36.200Z,61.88
2023-03-22T05:57:36.130Z,61.88
2023-03-22T05:58:36.110Z,67.50
2023-03-22T05:59:36.107Z,61.88
2023-03-22T06:00:36.092Z,61.88
2023-03-22T06:01:36.119Z,67.50
2023-03-22T06:02:36.079Z,67.50
2023-03-22T06:03:36.148Z,61.88
2023-03-22T06:04:36.052Z,61.88
2023-03-22T06:05:36.051Z,67.50
2023-03-22T06:06:36.093Z,73.12
2023-03-22T06:07:36.018Z,67.50
2023-03-22T06:08:36.018Z,67.50
2023-03-22T06:09:35.999Z,67.50
2023-03-22T06:10:36.014Z,67.50
2023-03-22T06:11:35.996Z,67.50
2023-03-22T06:12:36.945Z,73.12
2023-03-22T06:13:35.960Z,67.50
2023-03-22T06:14:35.965Z,67.50
2023-03-22T06:15:35.941Z,67.50
2023-03-22T06:16:36.038Z,67.50
2023-03-22T06:17:35.915Z,67.50
2023-03-22T06:18:35.917Z,73.12
2023-03-22T06:19:35.902Z,78.75
2023-03-22T06:20:35.948Z,78.75
2023-03-22T06:21:35.952Z,84.38
2023-03-22T06:22:35.901Z,84.38
2023-03-22T06:23:35.867Z,84.38
2023-03-22T06:24:35.873Z,90.00
2023-03-22T06:25:35.892Z,95.62
2023-03-22T06:26:35.907Z,95.62
2023-03-22T06:27:35.830Z,95.62
2023-03-22T06:28:35.851Z,101.25
2023-03-22T06:29:35.807Z,106.88
2023-03-22T06:30:35.817Z,106.88
2023-03-22T06:31:35.852Z,106.88
2023-03-22T06:32:35.789Z,106.88
2023-03-22T06:33:35.749Z,101.25
2023-03-22T06:34:35.782Z,106.88
2023-03-22T06:35:35.794Z,112.50
2023-03-22T06:36:35.754Z,123.75
2023-03-22T06:37:35.707Z,123.75
2023-03-22T06:38:35.714Z,123.75
2023-03-22T06:39:35.692Z,123.75
2023-03-22T06:40:35.713Z,129.38
2023-03-22T06:41:36.744Z,129.38
2023-03-22T06:42:35.675Z,135.00
2023-03-22T06:43:35.650Z,129.38
2023-03-22T06:44:35.647Z,135.00
2023-03-22T06:45:35.647Z,135.00
2023-03-22T06:46:35.676Z,135.00
2023-03-22T06:47:35.620Z,135.00
2023-03-22T06:48:35.603Z,129.38
2023-03-22T06:49:35.625Z,135.00
2023-03-22T06:50:35.581Z,135.00
2023-03-22T06:51:35.634Z,140.62
2023-03-22T06:52:35.569Z,140.62
2023-03-22T06:53:35.550Z,140.62
2023-03-22T06:54:35.549Z,151.88
2023-03-22T06:55:35.548Z,146.25
2023-03-22T06:56:35.618Z,151.88
2023-03-22T06:57:35.520Z,163.12
2023-03-22T06:58:35.507Z,163.12
2023-03-22T06:59:35.496Z,151.88
2023-03-22T07:00:35.489Z,157.50
2023-03-22T07:01:35.495Z,151.88
2023-03-22T07:02:35.501Z,157.50
2023-03-22T07:03:35.464Z,157.50
2023-03-22T07:04:35.461Z,168.75
2023-03-22T07:05:35.619Z,168.75
2023-03-22T07:06:35.437Z,174.38
2023-03-22T07:07:35.463Z,185.62
2023-03-22T07:08:35.449Z,185.62
2023-03-22T07:09:35.416Z,191.25
2023-03-22T07:10:35.412Z,191.25
2023-03-22T07:11:35.406Z,191.25
2023-03-22T07:12:35.415Z,196.88
2023-03-22T07:13:35.386Z,196.88
2023-03-22T07:14:35.364Z,191.25
2023-03-22T07:15:35.408Z,196.88
2023-03-22T07:16:35.335Z,208.12
2023-03-22T07:17:35.356Z,213.75
2023-03-22T07:18:35.310Z,219.38
2023-03-22T07:19:35.311Z,230.62
2023-03-22T07:20:35.303Z,241.88
2023-03-22T07:21:35.295Z,253.12
2023-03-22T07:22:35.300Z,258.75
2023-03-22T07:23:35.280Z,270.00
2023-03-22T07:24:37.192Z,275.62
2023-03-22T07:25:36.246Z,275.62
2023-03-22T07:26:35.239Z,292.50
2023-03-22T07:27:35.255Z,286.88
2023-03-22T07:28:35.234Z,292.50
2023-03-22T07:29:35.206Z,303.75
2023-03-22T07:30:35.225Z,309.38
2023-03-22T07:31:35.183Z,303.75
2023-03-22T07:32:35.248Z,298.12
2023-03-22T07:33:35.214Z,303.75
2023-03-22T07:34:35.157Z,309.38
2023-03-22T07:35:35.242Z,315.00
2023-03-22T07:36:35.144Z,298.12
2023-03-22T07:37:35.144Z,292.50
2023-03-22T07:38:35.129Z,303.75
2023-03-22T07:39:35.121Z,298.12
2023-03-22T07:40:35.125Z,298.12
2023-03-22T07:41:35.091Z,292.50
2023-03-22T07:42:35.138Z,292.50
2023-03-22T07:43:47.304Z,298.12
2023-03-22T07:44:37.065Z,303.75
2023-03-22T07:45:35.078Z,286.88
2023-03-22T07:46:35.076Z,275.62
2023-03-22T07:47:41.042Z,270.00
2023-03-22T07:48:37.036Z,253.12
2023-03-22T07:49:35.015Z,241.88
2023-03-22T07:50:35.055Z,236.25
2023-03-22T07:51:34.998Z,236.25
2023-03-22T07:52:35.045Z,225.00
2023-03-22T07:53:34.988Z,213.75
2023-03-22T07:54:34.985Z,208.12
2023-03-22T07:55:34.972Z,185.62
2023-03-22T07:56:34.957Z,174.38
2023-03-22T07:57:34.952Z,168.75
2023-03-22T07:58:34.932Z,157.50
2023-03-22T07:59:34.919Z,174.38
2023-03-22T08:00:34.915Z,174.38
2023-03-22T08:01:34.995Z,174.38
2023-03-22T08:02:34.927Z,180.00
2023-03-22T08:03:34.900Z,185.62
2023-03-22T08:04:34.886Z,191.25
2023-03-22T08:05:34.864Z,202.50
2023-03-22T08:06:34.841Z,213.75
2023-03-22T08:07:35.879Z,219.38
2023-03-22T08:08:34.844Z,236.25
2023-03-22T08:09:34.820Z,247.50
2023-03-22T08:10:34.944Z,247.50
2023-03-22T08:11:34.809Z,247.50
2023-03-22T08:12:34.825Z,241.88
2023-03-22T08:13:34.782Z,247.50
2023-03-22T08:14:36.825Z,258.75
2023-03-22T08:15:35.784Z,264.38
2023-03-22T08:16:34.790Z,264.38
2023-03-22T08:17:34.762Z,286.88
2023-03-22T08:18:34.738Z,275.62
2023-03-22T08:19:34.722Z,298.12
2023-03-22T08:20:34.717Z,298.12
2023-03-22T08:21:34.710Z,315.00
2023-03-22T08:22:34.728Z,303.75
2023-03-22T08:23:41.796Z,320.62
2023-03-22T08:24:36.681Z,298.12
2023-03-22T08:25:34.669Z,292.50
2023-03-22T08:26:34.658Z,315.00
2023-03-22T08:27:34.691Z,331.88
2023-03-22T08:28:34.643Z,343.12
2023-03-22T08:29:34.641Z,343.12
2023-03-22T08:30:34.621Z,343.12
2023-03-22T08:31:34.633Z,337.50
2023-03-22T08:32:34.617Z,348.75
2023-03-22T08:33:34.596Z,360.00
2023-03-22T08:34:34.622Z,360.00
2023-03-22T08:35:34.574Z,348.75
2023-03-22T08:36:34.553Z,343.12
2023-03-22T08:37:34.566Z,326.25
2023-03-22T08:38:34.539Z,331.88
2023-03-22T08:39:34.540Z,326.25
2023-03-22T08:40:34.594Z,298.12
2023-03-22T08:41:34.513Z,270.00
2023-03-22T08:42:34.535Z,225.00
2023-03-22T08:43:34.488Z,196.88
2023-03-22T08:44:34.481Z,202.50
2023-03-22T08:45:34.470Z,219.38
2023-03-22T08:46:34.537Z,202.50
2023-03-22T08:47:34.470Z,168.75
2023-03-22T08:48:34.437Z,174.38
2023-03-22T08:49:34.454Z,191.25
2023-03-22T08:50:34.455Z,202.50
2023-03-22T08:51:34.424Z,196.88
2023-03-22T08:52:34.434Z,191.25
2023-03-22T08:53:34.419Z,196.88
2023-03-22T08:54:35.017Z,213.75
2023-03-22T08:55:34.368Z,275.62
2023-03-22T08:56:34.367Z,303.75
2023-03-22T08:57:34.692Z,309.38
2023-03-22T08:58:35.340Z,281.25
2023-03-22T08:59:34.357Z,258.75
2023-03-22T09:00:47.780Z,225.00
2023-03-22T09:01:36.431Z,185.62
2023-03-22T09:02:34.349Z,174.38
2023-03-22T09:03:34.291Z,185.62
2023-03-22T09:04:34.311Z,219.38
2023-03-22T09:05:34.277Z,247.50
2023-03-22T09:06:34.265Z,303.75
2023-03-22T09:07:34.273Z,281.25
2023-03-22T09:08:34.234Z,281.25
2023-03-22T09:09:35.236Z,315.00
2023-03-22T09:10:34.229Z,309.38
2023-03-22T09:11:34.214Z,337.50
2023-03-22T09:12:34.229Z,354.38
2023-03-22T09:13:34.198Z,348.75
2023-03-22T09:14:34.191Z,337.50
2023-03-22T09:15:34.201Z,343.12
2023-03-22T09:16:34.935Z,376.88
2023-03-22T09:17:34.152Z,376.88
2023-03-22T09:18:34.174Z,388.12
2023-03-22T09:19:35.294Z,393.75
2023-03-22T09:20:34.156Z,365.62
2023-03-22T09:21:34.145Z,343.12
2023-03-22T09:22:34.111Z,337.50
2023-03-22T09:23:34.110Z,343.12
2023-03-22T09:24:34.078Z,326.25
2023-03-22T09:25:34.084Z,309.38
2023-03-22T09:26:34.072Z,309.38
2023-03-22T09:27:34.059Z,326.25
2023-03-22T09:28:34.074Z,354.38
2023-03-22T09:29:34.033Z,354.38
2023-03-22T09:30:34.056Z,365.62
2023-03-22T09:31:34.100Z,365.62
2023-03-22T09:32:34.749Z,371.25
2023-03-22T09:33:33.992Z,382.50
2023-03-22T09:34:33.986Z,405.00
2023-03-22T09:35:33.998Z,416.25
2023-03-22T09:36:33.960Z,382.50
2023-03-22T09:37:33.970Z,371.25
2023-03-22T09:38:34.014Z,371.25
2023-03-22T09:39:33.922Z,371.25
2023-03-22T09:40:33.933Z,354.38
2023-03-22T09:41:33.916Z,343.12
2023-03-22T09:42:33.945Z,320.62
2023-03-22T09:43:33.891Z,309.38
2023-03-22T09:44:33.883Z,309.38
2023-03-22T09:45:33.874Z,298.12
2023-03-22T09:46:33.929Z,292.50
2023-03-22T09:47:44.476Z,298.12
2023-03-22T09:48:35.855Z,309.38
2023-03-22T09:49:46.943Z,320.62
2023-03-22T09:50:35.828Z,337.50
2023-03-22T09:51:33.815Z,365.62
2023-03-22T09:52:33.860Z,354.38
2023-03-22T09:53:33.802Z,360.00
2023-03-22T09:54:33.797Z,354.38
2023-03-22T09:55:33.788Z,343.12
2023-03-22T09:56:33.762Z,337.50
2023-03-22T09:57:33.761Z,343.12
2023-03-22T09:58:33.769Z,354.38
2023-03-22T09:59:33.745Z,360.00
2023-03-22T10:00:33.867Z,360.00
2023-03-22T10:01:34.051Z,376.88
2023-03-22T10:02:33.759Z,433.12
2023-03-22T10:03:33.775Z,455.62
2023-03-22T10:04:33.737Z,461.25
2023-03-22T10:05:33.709Z,472.50
2023-03-22T10:06:33.671Z,511.88
2023-03-22T10:07:46.703Z,517.50
2023-03-22T10:08:33.648Z,489.38
2023-03-22T10:09:33.634Z,478.12
2023-03-22T10:10:33.644Z,478.12
2023-03-22T10:11:33.636Z,500.62
2023-03-22T10:12:33.615Z,506.25
2023-03-22T10:13:33.648Z,489.38
2023-03-22T10:14:33.585Z,500.62
2023-03-22T10:15:33.574Z,472.50
2023-03-22T10:16:33.600Z,444.38
2023-03-22T10:17:33.559Z,433.12
2023-03-22T10:18:33.569Z,433.12
2023-03-22T10:19:33.534Z,427.50
2023-03-22T10:20:34.560Z,421.88
2023-03-22T10:21:33.528Z,416.25
2023-03-22T10:22:33.519Z,410.62
2023-03-22T10:23:33.556Z,410.62
2023-03-22T10:24:33.496Z,416.25
2023-03-22T10:25:33.483Z,421.88
2023-03-22T10:26:33.492Z,427.50
2023-03-22T10:27:33.457Z,444.38
2023-03-22T10:28:33.465Z,478.12
2023-03-22T10:29:33.447Z,495.00
2023-03-22T10:30:33.440Z,483.75
2023-03-22T10:31:33.488Z,472.50
2023-03-22T10:32:33.424Z,495.00
2023-03-22T10:33:33.477Z,517.50
2023-03-22T10:34:33.391Z,511.88
2023-03-22T10:35:33.425Z,511.88
2023-03-22T10:36:33.372Z,528.75
2023-03-22T10:37:33.375Z,511.88
2023-03-22T10:38:33.441Z,511.88
2023-03-22T10:39:33.346Z,511.88
2023-03-22T10:40:33.336Z,495.00
2023-03-22T10:41:33.347Z,478.12
2023-03-22T10:42:33.317Z,461.25
2023-03-22T10:43:33.299Z,472.50
2023-03-22T10:44:33.323Z,461.25
2023-03-22T10:45:33.280Z,450.00
2023-03-22T10:46:33.298Z,438.75
2023-03-22T10:47:33.261Z,433.12
2023-03-22T10:48:33.495Z,421.88
2023-03-22T10:49:33.307Z,410.62
2023-03-22T10:50:33.239Z,410.62
2023-03-22T10:51:33.256Z,405.00
2023-03-22T10:52:33.211Z,416.25
2023-03-22T10:53:33.217Z,416.25
2023-03-22T10:54:33.190Z,416.25
2023-03-22T10:55:33.223Z,416.25
2023-03-22T10:56:33.180Z,421.88
2023-03-22T10:57:33.176Z,421.88
2023-03-22T10:58:33.181Z,427.50
2023-03-22T10:59:33.144Z,438.75
2023-03-22T11:00:33.183Z,450.00
2023-03-22T11:01:33.279Z,450.00
2023-03-22T11:02:33.222Z,444.38
2023-03-22T11:03:33.101Z,438.75
2023-03-22T11:04:33.097Z,450.00
2023-03-22T11:05:33.091Z,461.25
2023-03-22T11:06:33.085Z,472.50
2023-03-22T11:07:33.068Z,466.88
2023-03-22T11:08:33.078Z,478.12
2023-03-22T11:09:33.050Z,489.38
2023-03-22T11:10:33.163Z,506.25
2023-03-22T11:11:33.051Z,495.00
2023-03-22T11:12:33.027Z,511.88
2023-03-22T11:13:33.029Z,511.88
2023-03-22T11:14:33.005Z,506.25
2023-03-22T11:15:32.993Z,500.62
2023-03-22T11:16:33.030Z,506.25
2023-03-22T11:17:32.971Z,495.00
2023-03-22T11:18:32.983Z,489.38
2023-03-22T11:19:32.948Z,495.00
2023-03-22T11:20:33.015Z,478.12
2023-03-22T11:21:32.963Z,472.50
2023-03-22T11:22:32.915Z,478.12
2023-03-22T11:23:32.941Z,472.50
2023-03-22T11:24:32.937Z,466.88
2023-03-22T11:25:32.897Z,472.50
2023-03-22T11:26:33.267Z,483.75
2023-03-22T11:27:32.913Z,478.12
2023-03-22T11:28:32.878Z,466.88
2023-03-22T11:29:32.848Z,450.00
2023-03-22T11:30:32.839Z,444.38
2023-03-22T11:31:32.849Z,450.00
2023-03-22T11:32:32.886Z,450.00
2023-03-22T11:33:32.833Z,450.00
2023-03-22T11:34:32.845Z,450.00
2023-03-22T11:35:32.822Z,444.38
2023-03-22T11:36:32.790Z,444.38
2023-03-22T11:37:32.782Z,450.00
2023-03-22T11:38:32.782Z,450.00
2023-03-22T11:39:32.748Z,450.00
2023-03-22T11:40:32.765Z,450.00
2023-03-22T11:41:32.737Z,450.00
2023-03-22T11:42:32.736Z,450.00
2023-03-22T11:43:32.807Z,455.62
2023-03-22T11:44:32.712Z,466.88
2023-03-22T11:45:32.696Z,483.75
2023-03-22T11:46:33.708Z,489.38
2023-03-22T11:47:33.684Z,472.50
2023-03-22T11:48:32.851Z,483.75
2023-03-22T11:49:32.675Z,489.38
2023-03-22T11:50:32.771Z,472.50
2023-03-22T11:51:32.649Z,472.50
2023-03-22T11:52:32.661Z,466.88
2023-03-22T11:53:32.634Z,472.50
2023-03-22T11:54:32.611Z,472.50
2023-03-22T11:55:32.615Z,472.50
2023-03-22T11:56:32.596Z,472.50
2023-03-22T11:57:32.579Z,478.12
2023-03-22T11:58:32.585Z,489.38
2023-03-22T11:59:32.562Z,500.62
2023-03-22T12:00:32.552Z,500.62
2023-03-22T12:01:32.548Z,495.00
2023-03-22T12:02:32.648Z,483.75
2023-03-22T12:03:32.734Z,483.75
2023-03-22T12:04:32.579Z,489.38
2023-03-22T12:05:32.498Z,500.62
2023-03-22T12:06:32.543Z,506.25
2023-03-22T12:07:32.478Z,489.38
2023-03-22T12:08:32.511Z,523.12
2023-03-22T12:09:32.462Z,523.12
2023-03-22T12:10:32.449Z,523.12
2023-03-22T12:11:32.443Z,523.12
2023-03-22T12:12:32.430Z,489.38
2023-03-22T12:13:32.435Z,528.75
2023-03-22T12:14:32.417Z,528.75
2023-03-22T12:15:32.397Z,495.00
2023-03-22T12:16:32.435Z,489.38
2023-03-22T12:17:32.432Z,545.62
2023-03-22T12:18:32.423Z,562.50
2023-03-22T12:19:32.360Z,540.00
2023-03-22T12:20:32.366Z,556.88
2023-03-22T12:21:32.377Z,562.50
2023-03-22T12:22:32.343Z,573.75
2023-03-22T12:23:32.347Z,568.12
2023-03-22T12:24:32.305Z,568.12
2023-03-22T12:25:32.312Z,556.88
2023-03-22T12:26:32.287Z,534.38
2023-03-22T12:27:32.280Z,523.12
2023-03-22T12:28:32.292Z,523.12
2023-03-22T12:29:32.273Z,534.38
2023-03-22T12:30:32.261Z,528.75
2023-03-22T12:31:32.291Z,511.88
2023-03-22T12:32:32.275Z,511.88
2023-03-22T12:33:32.254Z,506.25
2023-03-22T12:34:32.220Z,483.75
2023-03-22T12:35:32.209Z,478.12
2023-03-22T12:36:32.201Z,466.88
2023-03-22T12:37:32.190Z,461.25
2023-03-22T12:38:32.219Z,455.62
2023-03-22T12:39:32.170Z,461.25
2023-03-22T12:40:32.174Z,466.88
2023-03-22T12:41:32.146Z,478.12
2023-03-22T12:42:34.702Z,472.50
2023-03-22T12:43:33.141Z,472.50
2023-03-22T12:44:32.127Z,455.62
2023-03-22T12:45:32.118Z,466.88
2023-03-22T12:46:32.124Z,466.88
2023-03-22T12:47:32.134Z,461.25
2023-03-22T12:48:32.161Z,444.38
2023-03-22T12:49:32.079Z,450.00
2023-03-22T12:50:32.067Z,455.62